createdAt,value
2022-12-18T00:02:28.211Z,15.35
2022-12-18T00:05:29.854Z,15.95
2022-12-18T00:08:31.605Z,16.75
2022-12-18T00:11:33.297Z,15.13
2022-12-18T00:14:34.963Z,14.70
2022-12-18T00:17:36.565Z,15.05
2022-12-18T00:20:40.176Z,14.77
2022-12-18T00:23:43.838Z,15.05
2022-12-18T00:26:45.609Z,15.37
2022-12-18T00:29:48.719Z,14.70
2022-12-18T00:32:50.306Z,16.52
2022-12-18T00:35:51.896Z,17.63
2022-12-18T00:38:55.193Z,15.20
2022-12-18T00:42:15.567Z,16.53
2022-12-18T00:45:17.225Z,16.13
2022-12-18T00:48:19.000Z,15.77
2022-12-18T00:51:20.635Z,17.30
2022-12-18T00:54:22.235Z,16.23
2022-12-18T00:57:25.564Z,15.93
2022-12-18T01:00:27.229Z,17.37
2022-12-18T01:03:28.920Z,17.17
2022-12-18T01:06:30.762Z,16.27
2022-12-18T01:09:32.503Z,17.92
2022-12-18T01:12:34.324Z,16.97
2022-12-18T01:15:35.946Z,16.37
2022-12-18T01:18:37.572Z,16.85
2022-12-18T01:21:39.182Z,16.42
2022-12-18T01:24:40.842Z,16.02
2022-12-18T01:27:42.505Z,15.37
2022-12-18T01:30:44.325Z,17.37
2022-12-18T01:33:46.473Z,17.55
2022-12-18T01:36:48.133Z,16.75
2022-12-18T01:39:50.901Z,16.67
2022-12-18T01:42:53.155Z,19.07
2022-12-18T01:45:55.262Z,17.10
2022-12-18T01:49:02.281Z,17.50
2022-12-18T01:52:04.794Z,17.27
2022-12-18T01:55:07.803Z,17.48
2022-12-18T01:58:09.611Z,16.40
2022-12-18T02:01:11.391Z,17.00
2022-12-18T02:04:31.238Z,17.23
2022-12-18T02:07:45.189Z,17.67
2022-12-18T02:11:13.248Z,17.25
2022-12-18T02:14:36.801Z,17.17
2022-12-18T02:17:44.420Z,17.07
2022-12-18T02:21:04.006Z,16.80
2022-12-18T02:24:34.683Z,17.45
2022-12-18T02:27:40.080Z,16.48
2022-12-18T02:30:43.924Z,17.20
2022-12-18T02:33:47.071Z,16.77
2022-12-18T02:36:50.223Z,18.25
2022-12-18T02:39:54.051Z,17.73
2022-12-18T02:42:55.923Z,18.92
2022-12-18T02:46:00.579Z,17.93
2022-12-18T02:49:19.883Z,18.33
2022-12-18T02:52:39.506Z,18.17
2022-12-18T02:55:55.257Z,16.98
2022-12-18T02:59:01.112Z,17.30
2022-12-18T03:02:20.022Z,16.70
2022-12-18T03:05:44.538Z,18.57
2022-12-18T03:08:50.734Z,18.52
2022-12-18T03:12:23.842Z,17.42
2022-12-18T03:15:31.590Z,17.48
2022-12-18T03:18:47.080Z,17.37
2022-12-18T03:21:52.700Z,17.80
2022-12-18T03:24:57.483Z,17.63
2022-12-18T03:28:02.081Z,18.55
2022-12-18T03:31:07.606Z,18.92
2022-12-18T03:34:20.753Z,18.70
2022-12-18T03:37:22.510Z,18.97
2022-12-18T03:40:32.232Z,17.38
2022-12-18T03:43:54.077Z,18.60
2022-12-18T03:47:16.525Z,18.25
2022-12-18T03:50:28.159Z,18.07
2022-12-18T03:53:50.193Z,18.20
2022-12-18T03:56:59.133Z,19.08
2022-12-18T04:00:09.218Z,17.95
2022-12-18T04:03:12.086Z,17.88
2022-12-18T04:06:15.924Z,17.87
2022-12-18T04:09:17.872Z,19.77
2022-12-18T04:12:19.544Z,18.40
2022-12-18T04:15:21.254Z,20.02
2022-12-18T04:18:22.856Z,19.13
2022-12-18T04:21:24.513Z,20.73
2022-12-18T04:24:26.465Z,19.57
2022-12-18T04:27:28.099Z,20.20
2022-12-18T04:30:30.140Z,19.17
2022-12-18T04:33:32.001Z,20.65
2022-12-18T04:36:33.833Z,21.47
2022-12-18T04:39:36.684Z,19.73
2022-12-18T04:42:39.736Z,18.38
2022-12-18T04:45:41.502Z,20.75
2022-12-18T04:48:43.150Z,18.23
2022-12-18T04:51:44.837Z,16.93
2022-12-18T04:54:46.549Z,19.50
2022-12-18T04:57:48.157Z,18.40
2022-12-18T05:00:49.775Z,18.67
2022-12-18T05:03:52.671Z,17.92
2022-12-18T05:06:54.446Z,17.63
2022-12-18T05:09:56.109Z,18.63
2022-12-18T05:13:01.324Z,18.10
2022-12-18T05:16:03.691Z,19.27
2022-12-18T05:19:05.546Z,22.02
2022-12-18T05:22:07.199Z,22.27
2022-12-18T05:25:09.466Z,22.67
2022-12-18T05:28:11.301Z,22.95
2022-12-18T05:31:13.402Z,21.60
2022-12-18T05:34:15.170Z,20.85
2022-12-18T05:37:17.899Z,19.10
2022-12-18T05:40:19.562Z,18.88
2022-12-18T05:43:25.237Z,19.95
2022-12-18T05:46:27.637Z,18.73
2022-12-18T05:49:29.284Z,18.17
2022-12-18T05:52:31.562Z,17.33
2022-12-18T05:55:37.294Z,17.65
2022-12-18T05:58:39.846Z,18.08
2022-12-18T06:01:41.825Z,18.30
2022-12-18T06:04:43.682Z,17.20
2022-12-18T06:07:45.426Z,18.45
2022-12-18T06:10:53.325Z,19.15
2022-12-18T06:13:59.181Z,18.17
2022-12-18T06:17:01.264Z,21.95
2022-12-18T06:20:03.920Z,22.10
2022-12-18T06:23:05.498Z,19.73
2022-12-18T06:26:09.488Z,20.67
2022-12-18T06:29:11.142Z,19.40
2022-12-18T06:32:12.787Z,21.73
2022-12-18T06:35:14.422Z,20.90
2022-12-18T06:38:17.575Z,20.63
2022-12-18T06:41:21.688Z,25.00
2022-12-18T06:44:23.495Z,29.65
2022-12-18T06:47:25.202Z,23.33
2022-12-18T06:50:27.014Z,21.55
2022-12-18T06:53:29.349Z,27.67
2022-12-18T06:56:31.643Z,23.55
2022-12-18T06:59:33.343Z,33.30
2022-12-18T07:02:35.467Z,53.57
2022-12-18T07:05:41.853Z,42.35
2022-12-18T07:08:43.659Z,29.02
2022-12-18T07:11:45.377Z,24.60
2022-12-18T07:14:46.970Z,21.73
2022-12-18T07:17:48.605Z,27.73
2022-12-18T07:20:50.241Z,22.58
2022-12-18T07:23:51.995Z,24.00
2022-12-18T07:26:53.717Z,25.33
2022-12-18T07:29:55.990Z,25.00
2022-12-18T07:32:57.689Z,22.13
2022-12-18T07:36:04.593Z,22.65
2022-12-18T07:39:06.310Z,32.53
2022-12-18T07:42:26.463Z,30.05
2022-12-18T07:45:29.193Z,26.85
2022-12-18T07:48:31.590Z,27.15
2022-12-18T07:51:33.623Z,25.73
2022-12-18T07:54:35.309Z,23.17
2022-12-18T07:57:56.423Z,20.20
2022-12-18T08:01:05.870Z,20.50
2022-12-18T08:04:08.021Z,19.70
2022-12-18T08:07:09.681Z,19.40
2022-12-18T08:10:11.303Z,20.57
2022-12-18T08:13:12.924Z,20.45
2022-12-18T08:16:14.569Z,19.60
2022-12-18T08:19:16.255Z,19.88
2022-12-18T08:22:18.033Z,19.08
2022-12-18T08:25:19.669Z,19.37
2022-12-18T08:28:21.478Z,19.13
2022-12-18T08:31:23.791Z,21.35
2022-12-18T08:34:26.247Z,20.17
2022-12-18T08:37:27.887Z,20.08
2022-12-18T08:40:29.625Z,20.57
2022-12-18T08:43:49.554Z,21.00
2022-12-18T08:46:51.132Z,21.13
2022-12-18T08:49:52.773Z,19.50
2022-12-18T08:52:54.475Z,19.15
2022-12-18T08:55:57.769Z,19.33
2022-12-18T08:58:59.571Z,19.30
2022-12-18T09:02:02.119Z,20.00
2022-12-18T09:05:04.157Z,20.63
2022-12-18T09:08:05.837Z,21.05
2022-12-18T09:11:14.445Z,20.63
2022-12-18T09:14:16.138Z,19.02
2022-12-18T09:17:17.878Z,19.80
2022-12-18T09:20:20.149Z,19.92
2022-12-18T09:23:22.385Z,20.42
2022-12-18T09:26:25.833Z,20.37
2022-12-18T09:29:27.493Z,21.17
2022-12-18T09:32:29.855Z,19.92
2022-12-18T09:35:31.706Z,22.05
2022-12-18T09:38:34.749Z,20.20
2022-12-18T09:41:54.274Z,20.10
2022-12-18T09:44:56.020Z,20.80
2022-12-18T09:47:58.612Z,20.48
2022-12-18T09:51:06.832Z,20.38
2022-12-18T09:54:15.218Z,20.83
2022-12-18T09:57:21.507Z,21.00
2022-12-18T10:00:25.201Z,21.05
2022-12-18T10:03:27.566Z,21.95
2022-12-18T10:06:57.258Z,20.48
2022-12-18T10:10:13.789Z,19.80
2022-12-18T10:13:32.063Z,20.70
2022-12-18T10:17:12.324Z,21.20
2022-12-18T10:20:25.058Z,22.02
2022-12-18T10:23:34.636Z,20.00
2022-12-18T10:26:36.431Z,21.85
2022-12-18T10:29:38.872Z,21.83
2022-12-18T10:32:40.711Z,22.02
2022-12-18T10:35:43.367Z,20.25
2022-12-18T10:38:45.162Z,22.02
2022-12-18T10:41:47.246Z,20.63
2022-12-18T10:45:02.637Z,20.73
2022-12-18T10:48:04.787Z,20.98
2022-12-18T10:51:12.095Z,28.08
2022-12-18T10:54:24.765Z,21.67
2022-12-18T10:57:35.026Z,20.95
2022-12-18T11:00:37.033Z,18.97
2022-12-18T11:03:41.994Z,20.60
2022-12-18T11:07:06.842Z,20.17
2022-12-18T11:10:18.673Z,17.88
2022-12-18T11:13:23.163Z,17.25
2022-12-18T11:16:24.988Z,17.80
2022-12-18T11:19:36.153Z,16.42
2022-12-18T11:22:39.288Z,22.02
2022-12-18T11:25:52.750Z,20.00
2022-12-18T11:29:09.780Z,21.80
2022-12-18T11:32:28.226Z,21.07
2022-12-18T11:35:46.722Z,23.48
2022-12-18T11:38:50.299Z,18.88
2022-12-18T11:42:12.698Z,20.20
2022-12-18T11:45:14.480Z,19.25
2022-12-18T11:48:27.841Z,18.53
2022-12-18T11:51:38.314Z,17.90
2022-12-18T11:54:39.950Z,17.02
2022-12-18T11:58:15.651Z,18.13
2022-12-18T12:01:54.961Z,18.30
2022-12-18T12:05:04.994Z,18.37
2022-12-18T12:08:12.530Z,17.98
2022-12-18T12:11:49.735Z,17.90
2022-12-18T12:15:19.166Z,16.50
2022-12-18T12:18:26.775Z,16.38
2022-12-18T12:21:42.104Z,15.20
2022-12-18T12:25:11.254Z,14.95
2022-12-18T12:28:31.305Z,15.35
2022-12-18T12:32:03.825Z,18.65
2022-12-18T12:35:44.137Z,17.73
2022-12-18T12:38:56.095Z,15.80
2022-12-18T12:42:16.807Z,20.15
2022-12-18T12:45:29.378Z,17.95
2022-12-18T12:48:52.345Z,18.08
2022-12-18T12:52:01.272Z,18.60
2022-12-18T12:55:10.313Z,15.47
2022-12-18T12:58:26.009Z,16.70
2022-12-18T13:02:00.702Z,17.88
2022-12-18T13:05:19.918Z,17.67
2022-12-18T13:08:30.071Z,17.05
2022-12-18T13:12:00.046Z,17.50
2022-12-18T13:15:23.448Z,15.35
2022-12-18T13:18:26.344Z,15.75
2022-12-18T13:21:31.947Z,16.23
2022-12-18T13:24:33.929Z,14.02
2022-12-18T13:27:41.343Z,16.97
2022-12-18T13:30:44.823Z,15.13
2022-12-18T13:34:23.835Z,15.40
2022-12-18T13:37:39.510Z,16.70
2022-12-18T13:40:41.613Z,17.17
2022-12-18T13:44:13.706Z,16.93
2022-12-18T13:47:38.407Z,15.45
2022-12-18T13:50:40.554Z,17.90
2022-12-18T13:53:50.742Z,14.77
2022-12-18T13:56:52.981Z,14.77
2022-12-18T13:59:54.713Z,12.93
2022-12-18T14:02:58.104Z,15.10
2022-12-18T14:06:13.667Z,16.75
2022-12-18T14:09:26.287Z,15.38
2022-12-18T14:12:51.630Z,16.80
2022-12-18T14:15:53.590Z,17.37
2022-12-18T14:19:08.372Z,22.48
2022-12-18T14:22:28.729Z,22.45
2022-12-18T14:25:31.787Z,24.35
2022-12-18T14:28:34.261Z,18.73
2022-12-18T14:31:35.932Z,20.07
2022-12-18T14:34:40.723Z,19.75
2022-12-18T14:37:42.382Z,21.65
2022-12-18T14:40:44.859Z,17.92
2022-12-18T14:43:49.246Z,21.38
2022-12-18T14:46:51.866Z,40.30
2022-12-18T14:49:53.472Z,50.83
2022-12-18T14:52:55.066Z,32.78
2022-12-18T14:55:56.916Z,33.47
2022-12-18T14:59:23.715Z,31.73
2022-12-18T15:02:28.801Z,31.57
2022-12-18T15:05:32.593Z,30.10
2022-12-18T15:08:37.904Z,34.45
2022-12-18T15:11:42.989Z,30.70
2022-12-18T15:14:45.052Z,41.20
2022-12-18T15:17:46.988Z,44.20
2022-12-18T15:20:54.243Z,40.85
2022-12-18T15:23:56.513Z,39.63
2022-12-18T15:26:59.099Z,36.28
2022-12-18T15:30:09.779Z,33.78
2022-12-18T15:33:25.767Z,30.13
2022-12-18T15:36:30.930Z,27.88
2022-12-18T15:39:32.785Z,28.17
2022-12-18T15:42:53.622Z,23.88
2022-12-18T15:45:55.502Z,24.55
2022-12-18T15:49:02.189Z,21.60
2022-12-18T15:52:05.783Z,23.20
2022-12-18T15:55:36.586Z,22.85
2022-12-18T15:58:39.089Z,25.67
2022-12-18T16:01:43.069Z,22.77
2022-12-18T16:04:46.816Z,24.47
2022-12-18T16:07:48.737Z,31.45
2022-12-18T16:10:50.314Z,45.42
2022-12-18T16:13:53.255Z,31.45
2022-12-18T16:16:58.591Z,26.42
2022-12-18T16:20:00.678Z,27.40
2022-12-18T16:23:02.572Z,36.42
2022-12-18T16:26:05.634Z,69.72
2022-12-18T16:29:07.537Z,95.38
2022-12-18T16:32:16.643Z,41.42
2022-12-18T16:35:18.645Z,37.83
2022-12-18T16:38:20.914Z,31.38
2022-12-18T16:41:34.728Z,75.68
2022-12-18T16:44:36.777Z,74.13
2022-12-18T16:47:39.865Z,37.70
2022-12-18T16:50:42.113Z,20.93
2022-12-18T16:53:44.509Z,21.60
2022-12-18T16:56:49.839Z,20.35
2022-12-18T16:59:51.936Z,24.48
2022-12-18T17:02:54.753Z,26.88
2022-12-18T17:06:03.185Z,40.30
2022-12-18T17:09:09.015Z,54.88
2022-12-18T17:12:10.942Z,55.15
2022-12-18T17:15:12.809Z,41.45
2022-12-18T17:18:15.096Z,53.63
2022-12-18T17:21:17.677Z,75.57
2022-12-18T17:24:20.657Z,95.68
2022-12-18T17:27:22.572Z,89.20
2022-12-18T17:30:24.430Z,87.57
2022-12-18T17:33:26.413Z,86.32
2022-12-18T17:36:29.022Z,58.33
2022-12-18T17:39:31.386Z,58.70
2022-12-18T17:42:34.046Z,53.13
2022-12-18T17:45:39.874Z,40.20
2022-12-18T17:48:41.866Z,29.92
2022-12-18T17:51:43.838Z,35.90
2022-12-18T17:54:48.056Z,38.05
2022-12-18T17:57:50.766Z,43.25
2022-12-18T18:00:52.792Z,40.67
2022-12-18T18:03:57.844Z,27.52
2022-12-18T18:07:00.030Z,25.20
2022-12-18T18:10:02.014Z,22.67
2022-12-18T18:13:23.373Z,29.88
2022-12-18T18:16:25.292Z,22.77
2022-12-18T18:19:27.213Z,24.33
2022-12-18T18:22:29.132Z,34.00
2022-12-18T18:25:31.222Z,36.53
2022-12-18T18:28:33.247Z,36.75
2022-12-18T18:31:35.316Z,34.58
2022-12-18T18:34:43.414Z,42.05
2022-12-18T18:37:48.203Z,40.40
2022-12-18T18:41:04.279Z,51.72
2022-12-18T18:44:06.859Z,53.38
2022-12-18T18:47:09.591Z,41.72
2022-12-18T18:50:12.934Z,40.65
2022-12-18T18:53:14.550Z,42.63
2022-12-18T18:57:03.925Z,49.10
2022-12-18T18:59:46.488Z,43.08
2022-12-18T19:02:48.386Z,39.72
2022-12-18T19:06:00.003Z,39.92
2022-12-18T19:09:04.358Z,38.87
2022-12-18T19:12:25.312Z,39.65
2022-12-18T19:15:27.999Z,40.08
2022-12-18T19:18:30.063Z,43.45
2022-12-18T19:21:34.109Z,43.85
2022-12-18T19:24:37.038Z,44.57
2022-12-18T19:27:40.076Z,42.03
2022-12-18T19:30:41.874Z,42.63
2022-12-18T19:33:46.172Z,42.55
2022-12-18T19:36:49.057Z,41.80
2022-12-18T19:39:53.161Z,39.77
2022-12-18T19:42:55.058Z,38.05
2022-12-18T19:45:57.047Z,40.50
2022-12-18T19:49:00.263Z,38.35
2022-12-18T19:52:02.783Z,37.40
2022-12-18T19:55:05.140Z,39.67
2022-12-18T19:58:07.021Z,42.08
2022-12-18T20:01:09.020Z,44.53
2022-12-18T20:04:12.581Z,44.00
2022-12-18T20:07:14.607Z,46.22
2022-12-18T20:10:20.001Z,47.37
2022-12-18T20:13:22.940Z,28.48
2022-12-18T20:16:25.190Z,37.65
2022-12-18T20:19:27.393Z,26.40
2022-12-18T20:22:29.310Z,24.08
2022-12-18T20:25:31.232Z,23.77
2022-12-18T20:28:33.252Z,23.42
2022-12-18T20:31:35.235Z,24.50
2022-12-18T20:34:37.117Z,25.80
2022-12-18T20:37:39.533Z,27.20
2022-12-18T20:40:44.651Z,26.70
2022-12-18T20:43:46.773Z,27.05
2022-12-18T20:46:50.145Z,25.20
2022-12-18T20:49:51.887Z,21.17
2022-12-18T20:52:53.625Z,21.75
2022-12-18T20:55:55.305Z,21.87
2022-12-18T20:58:58.195Z,22.92
2022-12-18T21:02:00.154Z,24.45
2022-12-18T21:05:02.001Z,23.30
2022-12-18T21:08:03.756Z,30.60
2022-12-18T21:11:51.302Z,23.87
2022-12-18T21:14:52.952Z,26.02
2022-12-18T21:17:54.583Z,25.45
2022-12-18T21:20:56.458Z,26.98
2022-12-18T21:23:58.064Z,30.52
2022-12-18T21:26:59.729Z,30.43
2022-12-18T21:30:01.743Z,31.38
2022-12-18T21:33:03.661Z,35.35
2022-12-18T21:36:06.602Z,34.25
2022-12-18T21:39:08.561Z,32.35
2022-12-18T21:42:31.706Z,37.53
2022-12-18T21:45:33.346Z,33.90
2022-12-18T21:48:38.329Z,34.03
2022-12-18T21:51:40.289Z,33.00
2022-12-18T21:54:41.979Z,32.60
2022-12-18T21:57:43.617Z,32.77
2022-12-18T22:00:48.671Z,32.03
2022-12-18T22:03:50.536Z,31.77
2022-12-18T22:06:52.836Z,31.63
2022-12-18T22:09:54.578Z,29.77
2022-12-18T22:12:56.227Z,31.67
2022-12-18T22:15:57.932Z,31.55
2022-12-18T22:18:59.992Z,32.35
2022-12-18T22:22:01.929Z,31.77
2022-12-18T22:25:03.962Z,29.85
2022-12-18T22:28:24.303Z,30.07
2022-12-18T22:31:25.980Z,31.75
2022-12-18T22:34:27.926Z,31.83
2022-12-18T22:37:29.560Z,31.88
2022-12-18T22:40:31.250Z,31.25
2022-12-18T22:43:33.409Z,32.13
2022-12-18T22:46:38.409Z,30.90
2022-12-18T22:49:40.045Z,30.92
2022-12-18T22:52:41.734Z,29.45
2022-12-18T22:55:43.410Z,30.10
2022-12-18T22:58:47.940Z,29.97
2022-12-18T23:01:51.555Z,29.27
2022-12-18T23:05:00.095Z,31.33
2022-12-18T23:08:01.780Z,29.98
2022-12-18T23:11:04.538Z,29.83
2022-12-18T23:14:06.238Z,32.50
2022-12-18T23:17:07.910Z,32.33
2022-12-18T23:20:10.154Z,31.70
2022-12-18T23:23:11.758Z,31.85
2022-12-18T23:26:21.113Z,31.23
2022-12-18T23:29:22.756Z,31.67
2022-12-18T23:32:24.350Z,30.98
2022-12-18T23:35:26.127Z,30.75
2022-12-18T23:38:28.705Z,28.27
2022-12-18T23:41:31.730Z,28.95
2022-12-18T23:44:33.974Z,26.97
2022-12-18T23:47:36.156Z,28.40
2022-12-18T23:50:38.117Z,32.80
2022-12-18T23:53:40.310Z,35.72
2022-12-18T23:56:42.379Z,36.57
2022-12-18T23:59:44.113Z,38.50
